Time;durP1;ratioP1;P1;durP2;ratioP2;P2;SDS_P1;SDS_P2;PMS_P1;PMS_P2;Temp;Humidity;BMP_temperature;BMP_pressure;BME280_temperature;BME280_humidity;BME280_pressure;Samples;Min_cycle;Max_cycle;Signal;HPM_P1;HPM_P2
2022/04/11 00:01:45;;;;;;;;;7.33;7.00;;;;;-147.47;100.00;64613.53;5081383;28;28473;-74
2022/04/11 00:04:12;;;;;;;;;12.33;9.67;;;;;-147.47;100.00;64613.53;5089336;28;29638;-74
2022/04/11 00:06:37;;;;;;;;;8.00;7.00;;;;;-147.47;100.00;64613.53;5081448;28;28322;-74
2022/04/11 00:09:03;;;;;;;;;12.33;9.00;;;;;-147.47;100.00;64613.53;5069133;28;28444;-77
2022/04/11 00:11:28;;;;;;;;;8.67;7.33;;;;;-147.47;100.00;64613.53;5084389;28;28672;-73
2022/04/11 00:13:54;;;;;;;;;6.67;6.67;;;;;-147.47;100.00;64613.53;5089414;28;28838;-74
2022/04/11 00:16:19;;;;;;;;;6.00;6.00;;;;;-147.47;100.00;64613.53;5089684;28;28507;-75
2022/04/11 00:18:45;;;;;;;;;10.67;8.00;;;;;-147.47;100.00;64613.53;5089609;28;28873;-76
2022/04/11 00:21:11;;;;;;;;;7.00;6.00;;;;;-147.47;100.00;64613.53;5089970;28;28539;-75
2022/04/11 00:23:36;;;;;;;;;8.00;6.67;;;;;-147.47;100.00;64613.53;5070378;28;29327;-73
2022/04/11 00:26:02;;;;;;;;;7.67;7.67;;;;;-147.47;100.00;64613.53;5088376;28;28401;-76
2022/04/11 00:28:28;;;;;;;;;8.00;7.00;;;;;-147.47;100.00;64613.53;5089317;28;28458;-74
2022/04/11 00:30:53;;;;;;;;;6.00;6.00;;;;;-147.47;100.00;64613.53;5089696;28;28398;-74
2022/04/11 00:33:18;;;;;;;;;7.00;5.00;;;;;-147.47;100.00;64613.53;5081731;28;28768;-74
2022/04/11 00:35:46;;;;;;;;;7.00;7.00;;;;;-147.47;100.00;64613.53;5075686;28;28573;-74
2022/04/11 00:38:12;;;;;;;;;9.00;9.00;;;;;-147.47;100.00;64613.53;5088055;28;28382;-76
2022/04/11 00:40:37;;;;;;;;;9.67;7.67;;;;;-147.47;100.00;64613.53;5088679;28;29033;-74
2022/04/11 00:43:03;;;;;;;;;8.00;6.33;;;;;-147.47;100.00;64613.53;5089364;28;28431;-75
2022/04/11 00:45:28;;;;;;;;;13.67;9.67;;;;;-147.47;100.00;64613.53;5089222;28;28906;-76
2022/04/11 00:47:53;;;;;;;;;10.00;8.00;;;;;-147.47;100.00;64613.53;5085775;28;28404;-74
2022/04/11 00:50:19;;;;;;;;;8.67;8.00;;;;;-147.47;100.00;64613.53;5080377;28;28365;-75
2022/04/11 00:52:48;;;;;;;;;9.33;7.67;;;;;-147.47;100.00;64613.53;5071072;28;28930;-74
2022/04/11 00:55:17;;;;;;;;;8.33;7.00;;;;;-147.47;100.00;64613.53;5064278;28;29794;-73
2022/04/11 00:57:43;;;;;;;;;7.00;7.00;;;;;-147.47;100.00;64613.53;5088917;28;28447;-74
2022/04/11 01:00:10;;;;;;;;;7.67;7.67;;;;;-147.47;100.00;64613.53;5088037;28;28432;-75
2022/04/11 01:02:36;;;;;;;;;7.00;7.00;;;;;-147.47;100.00;64613.53;5071250;28;28858;-75
2022/04/11 01:05:01;;;;;;;;;9.67;8.00;;;;;-147.47;100.00;64613.53;5088514;28;29083;-74
2022/04/11 01:07:27;;;;;;;;;8.00;6.00;;;;;-147.47;100.00;64613.53;5070588;28;28528;-75
2022/04/11 01:09:53;;;;;;;;;6.67;6.67;;;;;-147.47;100.00;64613.53;5090003;28;28882;-74
2022/04/11 01:12:21;;;;;;;;;7.00;7.00;;;;;-147.47;100.00;64613.53;5089377;28;28338;-75
2022/04/11 01:14:47;;;;;;;;;5.33;5.00;;;;;-147.47;100.00;64613.53;5088247;28;28395;-74
2022/04/11 01:17:12;;;;;;;;;7.33;6.00;;;;;-147.47;100.00;64613.53;5088678;28;28778;-74
2022/04/11 01:19:38;;;;;;;;;7.00;7.00;;;;;-147.47;100.00;64613.53;5088212;28;28795;-75
2022/04/11 01:22:03;;;;;;;;;7.67;6.67;;;;;-147.47;100.00;64613.53;5070502;28;28697;-74
2022/04/11 01:24:29;;;;;;;;;11.00;8.67;;;;;-147.47;100.00;64613.53;5088345;28;28490;-74
2022/04/11 01:26:55;;;;;;;;;9.00;7.00;;;;;-147.47;100.00;64613.53;5088408;28;28511;-74
2022/04/11 01:29:21;;;;;;;;;8.00;8.00;;;;;-147.47;100.00;64613.53;5081297;28;28667;-73
2022/04/11 01:31:47;;;;;;;;;6.67;6.33;;;;;-147.47;100.00;64613.53;5086294;28;28809;-74
2022/04/11 01:34:13;;;;;;;;;9.67;8.67;;;;;-147.47;100.00;64613.53;5087727;28;28906;-74
2022/04/11 01:36:38;;;;;;;;;8.00;8.00;;;;;-147.47;100.00;64613.53;5088376;28;28471;-74
2022/04/11 01:39:04;;;;;;;;;11.33;10.33;;;;;-147.47;100.00;64613.53;5073963;28;28424;-74
2022/04/11 01:41:29;;;;;;;;;11.00;10.00;;;;;-147.47;100.00;64613.53;5090884;28;28389;-74
2022/04/11 01:43:55;;;;;;;;;8.33;7.00;;;;;-147.47;100.00;64613.53;5091401;28;28751;-74
2022/04/11 01:46:20;;;;;;;;;10.67;9.00;;;;;-147.47;100.00;64613.53;5091383;28;28456;-74
2022/04/11 01:48:46;;;;;;;;;8.67;8.67;;;;;-147.47;100.00;64613.53;5091853;28;28924;-74
2022/04/11 01:51:13;;;;;;;;;7.67;7.67;;;;;-147.47;100.00;64613.53;5091634;28;28462;-73
2022/04/11 01:53:39;;;;;;;;;8.67;8.67;;;;;-147.47;100.00;64613.53;5091416;27;28823;-74
2022/04/11 01:56:05;;;;;;;;;9.00;9.00;;;;;-147.47;100.00;64613.53;5092035;28;28950;-74
2022/04/11 01:58:31;;;;;;;;;9.33;8.00;;;;;-147.47;100.00;64613.53;5091670;28;28631;-75
2022/04/11 02:00:58;;;;;;;;;11.00;10.33;;;;;-147.47;100.00;64613.53;5075010;28;28624;-73
2022/04/11 02:03:25;;;;;;;;;9.33;9.33;;;;;-147.47;100.00;64613.53;5067929;28;29896;-73
2022/04/11 02:05:50;;;;;;;;;8.00;8.00;;;;;-147.47;100.00;64613.53;5076089;28;28252;-74
2022/04/11 02:08:15;;;;;;;;;6.00;6.00;;;;;-147.47;100.00;64613.53;5091395;28;28694;-74
2022/04/11 02:10:41;;;;;;;;;9.00;7.00;;;;;-147.47;100.00;64613.53;5091044;28;28705;-74
2022/04/11 02:13:08;;;;;;;;;10.00;10.00;;;;;-147.47;100.00;64613.53;5091130;28;28443;-75
2022/04/11 02:15:34;;;;;;;;;10.00;7.33;;;;;-147.47;100.00;64613.53;5072867;28;28527;-74
2022/04/11 02:18:00;;;;;;;;;10.67;9.67;;;;;-147.47;100.00;64613.53;5073166;28;28869;-75
2022/04/11 02:20:26;;;;;;;;;7.67;7.67;;;;;-147.47;100.00;64613.53;5091224;28;28798;-75
2022/04/11 02:22:55;;;;;;;;;7.00;7.00;;;;;-147.47;100.00;64613.53;5090676;28;28852;-73
2022/04/11 02:25:22;;;;;;;;;8.33;7.67;;;;;-147.47;100.00;64613.53;5073357;28;28526;-75
2022/04/11 02:27:48;;;;;;;;;7.00;6.33;;;;;-147.47;100.00;64613.53;5066109;28;28678;-75
2022/04/11 02:30:16;;;;;;;;;7.00;7.00;;;;;-147.47;100.00;64613.53;5081107;28;28842;-75
2022/04/11 02:32:42;;;;;;;;;6.33;6.33;;;;;-147.47;100.00;64613.53;5069610;28;28774;-75
2022/04/11 02:35:08;;;;;;;;;5.00;4.00;;;;;-147.47;100.00;64613.53;5070731;28;28785;-76
2022/04/11 02:37:33;;;;;;;;;9.67;7.33;;;;;-147.47;100.00;64613.53;5074687;28;28569;-74
2022/04/11 02:39:59;;;;;;;;;7.00;7.00;;;;;-147.47;100.00;64613.53;5088776;28;28753;-74
2022/04/11 02:42:27;;;;;;;;;3.00;3.00;;;;;-147.47;100.00;64613.53;5072488;28;30052;-77
2022/04/11 02:44:53;;;;;;;;;5.00;3.00;;;;;-147.47;100.00;64613.53;5090005;28;28853;-73
2022/04/11 02:47:19;;;;;;;;;6.33;5.00;;;;;-147.47;100.00;64613.53;5090902;28;28615;-74
2022/04/11 02:49:45;;;;;;;;;4.00;4.00;;;;;-147.47;100.00;64613.53;5089635;28;29093;-77
2022/04/11 02:52:10;;;;;;;;;5.67;5.67;;;;;-147.47;100.00;64613.53;5072518;28;28556;-75
2022/04/11 02:54:37;;;;;;;;;9.67;7.33;;;;;-147.47;100.00;64613.53;5068722;28;29586;-75
2022/04/11 02:57:03;;;;;;;;;7.33;7.00;;;;;-147.47;100.00;64613.53;5087765;28;28507;-74
2022/04/11 02:59:28;;;;;;;;;8.00;8.00;;;;;-147.47;100.00;64613.53;5083142;28;28700;-75
2022/04/11 03:01:57;;;;;;;;;13.67;10.67;;;;;-147.47;100.00;64613.53;5078937;28;28570;-76
2022/04/11 03:04:22;;;;;;;;;11.67;11.67;;;;;-147.47;100.00;64613.53;5090739;28;29190;-76
2022/04/11 03:06:48;;;;;;;;;10.00;10.00;;;;;-147.47;100.00;64613.53;5083537;28;28985;-75
2022/04/11 03:09:13;;;;;;;;;17.67;11.67;;;;;-147.47;100.00;64613.53;5083970;28;28472;-75
2022/04/11 03:11:38;;;;;;;;;14.00;12.67;;;;;-147.47;100.00;64613.53;5076961;28;28885;-75
2022/04/11 03:14:04;;;;;;;;;14.67;14.00;;;;;-147.47;100.00;64613.53;5089998;28;28804;-74
2022/04/11 03:16:30;;;;;;;;;20.00;14.33;;;;;-147.47;100.00;64613.53;5076468;28;28960;-76
2022/04/11 03:18:56;;;;;;;;;14.67;14.67;;;;;-147.47;100.00;64613.53;5069945;28;28533;-75
2022/04/11 03:21:21;;;;;;;;;21.67;17.00;;;;;-147.47;100.00;64613.53;5069883;28;28458;-76
2022/04/11 03:23:47;;;;;;;;;9.00;8.00;;;;;-147.47;100.00;64613.53;5070808;28;28894;-74
2022/04/11 03:26:12;;;;;;;;;15.33;13.33;;;;;-147.47;100.00;64613.53;5051923;28;28726;-75
2022/04/11 03:28:37;;;;;;;;;10.00;9.00;;;;;-147.47;100.00;64613.53;5069311;28;28222;-77
2022/04/11 03:31:04;;;;;;;;;9.33;9.33;;;;;-147.47;100.00;64613.53;5069641;28;28472;-74
2022/04/11 03:33:29;;;;;;;;;8.00;8.00;;;;;-147.47;100.00;64613.53;5075791;28;28701;-75
2022/04/11 03:35:55;;;;;;;;;8.33;7.00;;;;;-147.47;100.00;64613.53;5083188;28;28684;-77
2022/04/11 03:38:20;;;;;;;;;8.00;6.67;;;;;-147.47;100.00;64613.53;5073813;28;28936;-76
2022/04/11 03:40:46;;;;;;;;;6.00;5.33;;;;;-147.47;100.00;64613.53;5090645;28;29151;-76
2022/04/11 03:43:13;;;;;;;;;8.33;7.00;;;;;-147.47;100.00;64613.53;5058190;28;28505;-75
2022/04/11 03:45:38;;;;;;;;;7.67;7.67;;;;;-147.47;100.00;64613.53;5068037;28;27929;-75
2022/04/11 03:48:04;;;;;;;;;7.00;6.67;;;;;-147.47;100.00;64613.53;5083709;28;28870;-75
2022/04/11 03:50:30;;;;;;;;;4.67;4.67;;;;;-147.47;100.00;64613.53;5090123;28;28526;-75
2022/04/11 03:52:55;;;;;;;;;7.33;7.33;;;;;-147.47;100.00;64613.53;5085435;28;28432;-75
2022/04/11 03:55:21;;;;;;;;;8.00;8.00;;;;;-147.47;100.00;64613.53;5090566;28;28493;-76
2022/04/11 03:57:47;;;;;;;;;11.67;9.33;;;;;-147.47;100.00;64613.53;5090419;28;28795;-75
2022/04/11 04:00:13;;;;;;;;;10.67;7.00;;;;;-147.47;100.00;64613.53;5100422;27;28607;-75
2022/04/11 04:02:38;;;;;;;;;7.67;7.67;;;;;-147.47;100.00;64613.53;5093963;27;28513;-75
2022/04/11 04:05:04;;;;;;;;;10.67;7.67;;;;;-147.47;100.00;64613.53;5069778;28;28457;-76
2022/04/11 04:07:30;;;;;;;;;6.33;6.33;;;;;-147.47;100.00;64613.53;5082266;28;28735;-75
2022/04/11 04:09:55;;;;;;;;;11.00;8.00;;;;;-147.47;100.00;64613.53;5085447;28;29762;-75
2022/04/11 04:12:22;;;;;;;;;8.67;8.67;;;;;-147.47;100.00;64613.53;5088685;28;28408;-76
2022/04/11 04:14:50;;;;;;;;;5.67;5.67;;;;;-147.47;100.00;64613.53;5089033;28;28565;-75
2022/04/11 04:17:15;;;;;;;;;10.00;7.33;;;;;-147.47;100.00;64613.53;5088966;28;28714;-77
2022/04/11 04:19:41;;;;;;;;;7.33;7.33;;;;;-147.47;100.00;64613.53;5087733;28;28536;-76
2022/04/11 04:22:07;;;;;;;;;6.00;5.00;;;;;-147.47;100.00;64613.53;5087112;28;28892;-75
2022/04/11 04:24:34;;;;;;;;;7.00;6.00;;;;;-147.47;100.00;64613.53;5088337;28;28445;-75
2022/04/11 04:27:01;;;;;;;;;8.67;7.33;;;;;-147.47;100.00;64613.53;5088927;28;28591;-76
2022/04/11 04:29:27;;;;;;;;;8.00;7.00;;;;;-147.47;100.00;64613.53;5085451;28;28554;-74
2022/04/11 04:31:53;;;;;;;;;10.33;8.00;;;;;-147.47;100.00;64613.53;5083095;28;28495;-75
2022/04/11 04:34:22;;;;;;;;;9.67;7.33;;;;;-147.47;100.00;64613.53;5063782;28;28468;-74
2022/04/11 04:36:47;;;;;;;;;8.00;8.00;;;;;-147.47;100.00;64613.53;5083519;28;28830;-74
2022/04/11 04:39:13;;;;;;;;;8.00;7.00;;;;;-147.47;100.00;64613.53;5082672;28;28491;-76
2022/04/11 04:41:39;;;;;;;;;8.00;7.33;;;;;-147.47;100.00;64613.53;5082152;28;28424;-76
2022/04/11 04:44:07;;;;;;;;;7.33;6.33;;;;;-147.47;100.00;64613.53;5083593;28;29336;-74
2022/04/11 04:46:33;;;;;;;;;7.00;6.33;;;;;-147.47;100.00;64613.53;5082439;28;28785;-74
2022/04/11 04:48:59;;;;;;;;;5.67;4.67;;;;;-147.47;100.00;64613.53;5063040;28;30668;-76
2022/04/11 04:51:24;;;;;;;;;7.00;6.00;;;;;-147.47;100.00;64613.53;5085446;28;28561;-75
2022/04/11 04:53:50;;;;;;;;;8.33;6.00;;;;;-147.47;100.00;64613.53;5085441;28;28827;-74
2022/04/11 04:56:15;;;;;;;;;11.00;7.00;;;;;-147.47;100.00;64613.53;5084433;28;28606;-76
2022/04/11 04:58:41;;;;;;;;;7.00;6.00;;;;;-147.47;100.00;64613.53;5058341;28;29714;-75
2022/04/11 05:01:06;;;;;;;;;3.33;1.67;;;;;-147.47;100.00;64613.53;5087134;27;28867;-74
2022/04/11 05:03:32;;;;;;;;;4.33;2.00;;;;;-147.47;100.00;64613.53;5080371;28;28527;-76
2022/04/11 05:05:57;;;;;;;;;7.67;7.67;;;;;-147.47;100.00;64613.53;5083350;28;28598;-75
2022/04/11 05:08:22;;;;;;;;;9.33;8.00;;;;;-147.47;100.00;64613.53;5081055;28;28572;-74
2022/04/11 05:10:48;;;;;;;;;7.67;6.33;;;;;-147.47;100.00;64613.53;5076781;27;28408;-76
2022/04/11 05:13:13;;;;;;;;;6.67;5.67;;;;;-147.47;100.00;64613.53;5088584;28;28448;-74
2022/04/11 05:15:42;;;;;;;;;8.33;7.00;;;;;-147.47;100.00;64613.53;5087192;28;28397;-75
2022/04/11 05:18:08;;;;;;;;;8.00;6.00;;;;;-147.47;100.00;64613.53;5091737;28;29135;-77
2022/04/11 05:20:34;;;;;;;;;8.67;7.33;;;;;-147.47;100.00;64613.53;5088866;28;28953;-73
2022/04/11 05:22:59;;;;;;;;;8.00;8.00;;;;;-147.47;100.00;64613.53;5083036;28;28522;-78
2022/04/11 05:25:25;;;;;;;;;13.00;8.00;;;;;-147.47;100.00;64613.53;5092244;28;28574;-75
2022/04/11 05:27:51;;;;;;;;;7.33;7.33;;;;;-147.47;100.00;64613.53;5071533;28;28894;-77
2022/04/11 05:30:17;;;;;;;;;6.33;6.33;;;;;-147.47;100.00;64613.53;5091781;28;28535;-74
2022/04/11 05:32:43;;;;;;;;;11.00;8.67;;;;;-147.47;100.00;64613.53;5095851;28;28492;-76
2022/04/11 05:35:12;;;;;;;;;10.00;9.33;;;;;-147.47;100.00;64613.53;5092397;28;28777;-77
2022/04/11 05:37:41;;;;;;;;;8.67;7.67;;;;;-147.47;100.00;64613.53;5095390;28;28449;-79
2022/04/11 05:40:09;;;;;;;;;11.33;8.00;;;;;-147.47;100.00;64613.53;5097628;28;28510;-80
2022/04/11 05:42:40;;;;;;;;;6.00;6.00;;;;;-147.47;100.00;64613.53;5090555;28;28498;-81
2022/04/11 05:45:06;;;;;;;;;9.33;8.00;;;;;-147.47;100.00;64613.53;5096065;28;28494;-80
2022/04/11 05:47:32;;;;;;;;;9.00;6.67;;;;;-147.47;100.00;64613.53;5098939;28;28863;-78
2022/04/11 05:49:58;;;;;;;;;9.00;9.00;;;;;-147.47;100.00;64613.53;5084623;28;28896;-80
2022/04/11 05:52:23;;;;;;;;;7.00;6.00;;;;;-147.47;100.00;64613.53;5094208;28;28526;-77
2022/04/11 05:54:49;;;;;;;;;11.00;9.67;;;;;-147.47;100.00;64613.53;5091307;28;28398;-78
2022/04/11 05:57:15;;;;;;;;;8.67;8.67;;;;;-147.47;100.00;64613.53;5095829;28;29390;-78
2022/04/11 05:59:40;;;;;;;;;7.67;7.67;;;;;-147.47;100.00;64613.53;5088313;28;28357;-75
2022/04/11 06:02:09;;;;;;;;;10.00;8.33;;;;;-147.47;100.00;64613.53;5074128;28;28765;-76
2022/04/11 06:04:34;;;;;;;;;10.00;7.00;;;;;-147.47;100.00;64613.53;5061475;28;28515;-73
2022/04/11 06:07:00;;;;;;;;;7.00;7.00;;;;;-147.47;100.00;64613.53;5056928;28;28627;-80
2022/04/11 06:09:25;;;;;;;;;9.33;9.00;;;;;-147.47;100.00;64613.53;5078380;28;28555;-80
2022/04/11 06:11:54;;;;;;;;;8.00;8.00;;;;;-147.47;100.00;64613.53;5074926;28;28614;-79
2022/04/11 06:14:19;;;;;;;;;8.67;8.67;;;;;-147.47;100.00;64613.53;5076717;28;28542;-79
2022/04/11 06:16:45;;;;;;;;;10.33;9.00;;;;;-147.47;100.00;64613.53;5074794;28;28941;-76
2022/04/11 06:19:10;;;;;;;;;10.33;10.33;;;;;-147.47;100.00;64613.53;5071410;28;28518;-79
2022/04/11 06:21:36;;;;;;;;;7.00;7.00;;;;;-147.47;100.00;64613.53;5065527;28;28532;-75
2022/04/11 06:24:01;;;;;;;;;9.33;8.00;;;;;-147.47;100.00;64613.53;5063705;28;28531;-76
2022/04/11 06:26:27;;;;;;;;;12.00;11.00;;;;;-147.47;100.00;64613.53;5070812;28;28632;-78
2022/04/11 06:28:52;;;;;;;;;10.33;8.33;;;;;-147.47;100.00;64613.53;5065336;28;28354;-79
2022/04/11 06:31:18;;;;;;;;;13.67;9.67;;;;;-147.47;100.00;64613.53;5068776;28;28739;-76
2022/04/11 06:33:43;;;;;;;;;8.67;7.33;;;;;-147.47;100.00;64613.53;5046971;28;30402;-79
2022/04/11 06:36:09;;;;;;;;;11.67;9.33;;;;;-147.47;100.00;64613.53;5064122;28;28861;-78
2022/04/11 06:38:34;;;;;;;;;13.67;11.67;;;;;-147.47;100.00;64613.53;5072200;28;28549;-79
2022/04/11 06:41:00;;;;;;;;;8.33;8.00;;;;;-147.47;100.00;64613.53;5068667;28;28988;-77
2022/04/11 06:43:26;;;;;;;;;11.00;9.00;;;;;-147.47;100.00;64613.53;5072551;28;28508;-77
2022/04/11 06:45:52;;;;;;;;;12.33;9.00;;;;;-147.47;100.00;64613.53;5072580;28;28803;-72
2022/04/11 06:48:17;;;;;;;;;4.00;3.00;;;;;-147.47;100.00;64613.53;5068519;28;28526;-73
2022/04/11 06:50:45;;;;;;;;;10.00;10.00;;;;;-147.47;100.00;64613.53;5050706;28;28695;-72
2022/04/11 06:53:14;;;;;;;;;7.67;7.67;;;;;-147.47;100.00;64613.53;5070175;28;28848;-74
2022/04/11 06:55:40;;;;;;;;;7.00;5.33;;;;;-147.47;100.00;64613.53;5052556;28;30414;-73
2022/04/11 06:58:05;;;;;;;;;8.00;6.00;;;;;-147.47;100.00;64613.53;5045054;28;28921;-74
2022/04/11 07:00:31;;;;;;;;;7.00;5.00;;;;;-147.47;100.00;64613.53;5070899;28;28803;-75
2022/04/11 07:02:56;;;;;;;;;8.00;8.00;;;;;-147.47;100.00;64613.53;5065145;28;28726;-76
2022/04/11 07:05:22;;;;;;;;;6.00;6.00;;;;;-147.47;100.00;64613.53;5065563;28;29728;-75
2022/04/11 07:07:47;;;;;;;;;4.00;4.00;;;;;-147.47;100.00;64613.53;5062515;28;28981;-73
2022/04/11 07:10:12;;;;;;;;;6.00;5.00;;;;;-147.47;100.00;64613.53;5080578;28;28385;-75
2022/04/11 07:12:39;;;;;;;;;7.33;5.33;;;;;-147.47;100.00;64613.53;5074134;28;28730;-73
2022/04/11 07:15:06;;;;;;;;;5.00;5.00;;;;;-147.47;100.00;64613.53;5070388;28;29088;-73
2022/04/11 07:17:31;;;;;;;;;7.00;6.67;;;;;-147.47;100.00;64613.53;5070295;28;28836;-73
2022/04/11 07:19:57;;;;;;;;;6.00;6.00;;;;;-147.47;100.00;64613.53;5069285;28;28468;-72
2022/04/11 07:22:22;;;;;;;;;7.67;6.67;;;;;-147.47;100.00;64613.53;5066728;28;28859;-73
2022/04/11 07:24:48;;;;;;;;;7.67;6.00;;;;;-147.47;100.00;64613.53;5068709;28;28793;-75
2022/04/11 07:27:14;;;;;;;;;4.33;4.00;;;;;-147.47;100.00;64613.53;5070498;28;28760;-72
2022/04/11 07:29:39;;;;;;;;;5.67;4.00;;;;;-147.47;100.00;64613.53;5070976;28;28729;-71
2022/04/11 07:32:05;;;;;;;;;6.33;6.33;;;;;-147.47;100.00;64613.53;5090967;28;29196;-72
2022/04/11 07:34:31;;;;;;;;;8.00;5.00;;;;;-147.47;100.00;64613.53;5090092;28;29447;-72
2022/04/11 07:36:56;;;;;;;;;6.33;4.67;;;;;-147.47;100.00;64613.53;5049743;28;28581;-72
2022/04/11 07:39:23;;;;;;;;;5.33;5.33;;;;;-147.47;100.00;64613.53;5058189;28;28554;-72
2022/04/11 07:41:49;;;;;;;;;5.67;5.67;;;;;-147.47;100.00;64613.53;5051867;28;29279;-73
2022/04/11 07:44:15;;;;;;;;;8.00;6.75;;;;;-147.47;100.00;64613.53;5068618;28;29304;-76
2022/04/11 07:46:41;;;;;;;;;6.75;6.00;;;;;-147.47;100.00;64613.53;5068215;28;28756;-73
2022/04/11 07:49:07;;;;;;;;;8.67;5.33;;;;;-147.47;100.00;64613.53;5069848;28;28506;-75
2022/04/11 07:51:32;;;;;;;;;11.00;8.33;;;;;-147.47;100.00;64613.53;5068415;28;28818;-76
2022/04/11 07:53:58;;;;;;;;;6.00;5.33;;;;;-147.47;100.00;64613.53;5051829;28;29952;-77
2022/04/11 07:56:23;;;;;;;;;9.33;6.67;;;;;-147.47;100.00;64613.53;5066854;28;28844;-76
2022/04/11 07:58:48;;;;;;;;;6.33;6.33;;;;;-147.47;100.00;64613.53;5063721;28;29168;-76
2022/04/11 08:01:16;;;;;;;;;7.00;7.00;;;;;-147.47;100.00;64613.53;5071742;28;29385;-74
2022/04/11 08:03:43;;;;;;;;;3.33;3.33;;;;;-147.47;100.00;64613.53;5069539;28;28788;-76
2022/04/11 08:06:09;;;;;;;;;6.00;6.00;;;;;-147.47;100.00;64613.53;5069460;28;28417;-73
2022/04/11 08:08:34;;;;;;;;;6.00;5.33;;;;;-147.47;100.00;64613.53;5052042;28;28601;-74
2022/04/11 08:11:00;;;;;;;;;5.67;5.67;;;;;-147.47;100.00;64613.53;5069593;28;28366;-73
2022/04/11 08:13:25;;;;;;;;;6.33;6.33;;;;;-147.47;100.00;64613.53;5069654;28;28447;-74
2022/04/11 08:15:50;;;;;;;;;8.00;7.00;;;;;-147.47;100.00;64613.53;5063901;28;28826;-72
2022/04/11 08:18:16;;;;;;;;;6.00;5.33;;;;;-147.47;100.00;64613.53;5063107;28;28472;-72
2022/04/11 08:20:41;;;;;;;;;4.33;4.33;;;;;-147.47;100.00;64613.53;5069774;28;28804;-73
2022/04/11 08:23:07;;;;;;;;;6.33;6.33;;;;;-147.47;100.00;64613.53;5085019;28;28314;-75
2022/04/11 08:25:32;;;;;;;;;7.67;6.67;;;;;-147.47;100.00;64613.53;5069914;28;28720;-74
2022/04/11 08:27:57;;;;;;;;;10.00;8.67;;;;;-147.47;100.00;64613.53;5062927;28;28416;-73
2022/04/11 08:30:23;;;;;;;;;6.00;6.00;;;;;-147.47;100.00;64613.53;5062783;28;29110;-73
2022/04/11 08:32:51;;;;;;;;;9.00;6.33;;;;;-147.47;100.00;64613.53;5075099;28;28853;-74
2022/04/11 08:35:21;;;;;;;;;8.00;7.00;;;;;-147.47;100.00;64613.53;5088762;28;28440;-73
2022/04/11 08:37:47;;;;;;;;;8.00;8.00;;;;;-147.47;100.00;64613.53;5088920;28;28404;-73
2022/04/11 08:40:14;;;;;;;;;6.33;5.67;;;;;-147.47;100.00;64613.53;5073695;28;29044;-72
2022/04/11 08:42:42;;;;;;;;;6.00;6.00;;;;;-147.47;100.00;64613.53;5050467;28;30006;-72
2022/04/11 08:45:08;;;;;;;;;8.33;7.67;;;;;-147.47;100.00;64613.53;5075718;28;28841;-71
2022/04/11 08:47:35;;;;;;;;;8.00;6.00;;;;;-147.47;100.00;64613.53;5081561;28;28412;-71
2022/04/11 08:50:03;;;;;;;;;5.00;4.33;;;;;-147.47;100.00;64613.53;5050749;28;30133;-74
2022/04/11 08:52:29;;;;;;;;;4.00;4.00;;;;;-147.47;100.00;64613.53;5063314;28;29435;-73
2022/04/11 08:54:56;;;;;;;;;6.67;6.33;;;;;-147.47;100.00;64613.53;5068700;28;28368;-74
2022/04/11 08:57:22;;;;;;;;;8.00;4.00;;;;;-147.47;100.00;64613.53;5070154;28;28430;-74
2022/04/11 08:59:48;;;;;;;;;5.00;4.00;;;;;-147.47;100.00;64613.53;5050373;28;28382;-74
2022/04/11 09:02:13;;;;;;;;;6.00;5.00;;;;;-147.47;100.00;64613.53;5071859;28;30185;-75
2022/04/11 09:04:54;;;;;;;;;6.33;4.67;;;;;-147.47;100.00;64613.53;5070099;28;28495;-73
2022/04/11 09:07:19;;;;;;;;;5.25;3.75;;;;;-147.47;100.00;64613.53;5068396;28;28763;-73
2022/04/11 09:09:45;;;;;;;;;5.00;5.00;;;;;-147.47;100.00;64613.53;5068326;28;28528;-71
2022/04/11 09:12:14;;;;;;;;;5.67;4.33;;;;;-147.47;100.00;64613.53;5066504;28;30018;-74
2022/04/11 09:14:40;;;;;;;;;4.25;4.25;;;;;-147.47;100.00;64613.53;5067020;28;28409;-71
2022/04/11 09:17:06;;;;;;;;;13.50;8.00;;;;;-147.47;100.00;64613.53;5048193;28;28412;-72
2022/04/11 09:19:31;;;;;;;;;5.25;5.25;;;;;-147.47;100.00;64613.53;5057465;28;28322;-72
2022/04/11 09:21:57;;;;;;;;;7.00;5.33;;;;;-147.47;100.00;64613.53;5067868;28;28484;-71
2022/04/11 09:24:26;;;;;;;;;5.00;4.00;;;;;-147.47;100.00;64613.53;5068256;28;28541;-75
2022/04/11 09:26:54;;;;;;;;;4.00;3.00;;;;;-147.47;100.00;64613.53;5068685;28;28550;-75
2022/04/11 09:29:20;;;;;;;;;4.40;4.40;;;;;-147.47;100.00;64613.53;5080584;28;28919;-73
2022/04/11 09:31:46;;;;;;;;;4.50;3.25;;;;;-147.47;100.00;64613.53;5068648;28;28440;-73
2022/04/11 09:34:20;;;;;;;;;3.20;2.00;;;;;-147.47;100.00;64613.53;5068153;28;28581;-71
2022/04/11 09:36:51;;;;;;;;;3.60;2.60;;;;;-147.47;100.00;64613.53;5068400;28;28469;-74
2022/04/11 09:39:22;;;;;;;;;6.80;3.40;;;;;-147.47;100.00;64613.53;5061032;28;28498;-73
2022/04/11 09:41:48;;;;;;;;;3.20;3.20;;;;;-147.47;100.00;64613.53;5047819;28;28419;-72
2022/04/11 09:44:27;;;;;;;;;1.60;1.60;;;;;-147.47;100.00;64613.53;5067307;28;28500;-73
2022/04/11 09:46:58;;;;;;;;;4.20;4.20;;;;;-147.47;100.00;64613.53;5078915;28;28498;-70
2022/04/11 09:49:24;;;;;;;;;6.50;5.00;;;;;-147.47;100.00;64613.53;5076109;28;28460;-74
2022/04/11 09:52:03;;;;;;;;;5.00;4.00;;;;;-147.47;100.00;64613.53;5060704;28;28670;-74
2022/04/11 09:54:29;;;;;;;;;2.40;2.40;;;;;-147.47;100.00;64613.53;5067684;28;28360;-73
2022/04/11 09:56:58;;;;;;;;;1.80;1.80;;;;;-147.47;100.00;64613.53;5050388;28;28387;-77
2022/04/11 09:59:24;;;;;;;;;5.80;5.80;;;;;-147.47;100.00;64613.53;5078035;28;30196;-73
2022/04/11 10:01:52;;;;;;;;;2.75;2.75;;;;;-147.47;100.00;64613.53;5091974;28;28488;-72
2022/04/11 10:04:21;;;;;;;;;3.60;3.60;;;;;-147.47;100.00;64613.53;5079923;28;28900;-72
2022/04/11 10:06:48;;;;;;;;;4.40;3.20;;;;;-147.47;100.00;64613.53;5077178;28;28615;-76
2022/04/11 10:09:14;;;;;;;;;3.60;3.60;;;;;-147.47;100.00;64613.53;5054459;28;28812;-74
2022/04/11 10:11:44;;;;;;;;;2.20;2.20;;;;;-147.47;100.00;64613.53;5053643;28;29464;-76
2022/04/11 10:14:12;;;;;;;;;3.00;2.20;;;;;-147.47;100.00;64613.53;5071711;28;28617;-74
2022/04/11 10:16:42;;;;;;;;;2.80;1.80;;;;;-147.47;100.00;64613.53;5073063;28;28409;-73
2022/04/11 10:19:09;;;;;;;;;0.60;0.60;;;;;-147.47;100.00;64613.53;5070607;28;28504;-76
2022/04/11 10:21:43;;;;;;;;;3.40;3.40;;;;;-147.47;100.00;64613.53;5071343;28;28445;-75
2022/04/11 10:24:21;;;;;;;;;0.60;0.60;;;;;-147.47;100.00;64613.53;5069293;28;28891;-76
2022/04/11 10:26:52;;;;;;;;;2.80;2.80;;;;;-147.47;100.00;64613.53;5070477;28;28371;-75
2022/04/11 10:29:32;;;;;;;;;3.60;3.20;;;;;-147.47;100.00;64613.53;5065375;28;28811;-74
2022/04/11 10:32:06;;;;;;;;;2.00;1.80;;;;;-147.47;100.00;64613.53;5053557;28;28721;-73
2022/04/11 10:34:56;;;;;;;;;3.20;2.20;;;;;-147.47;100.00;64613.53;5062986;28;28124;-73
2022/04/11 10:37:27;;;;;;;;;2.80;2.80;;;;;-147.47;100.00;64613.53;5043389;28;28636;-73
2022/04/11 10:40:13;;;;;;;;;1.20;1.20;;;;;-147.47;100.00;64613.53;5056469;28;28701;-74
2022/04/11 10:42:38;;;;;;;;;3.40;2.00;;;;;-147.47;100.00;64613.53;5054481;28;29325;-72
2022/04/11 10:45:34;;;;;;;;;3.00;2.50;;;;;-147.47;100.00;64613.53;5065529;28;28577;-75
2022/04/11 10:48:00;;;;;;;;;2.20;2.20;;;;;-147.47;100.00;64613.53;5063651;28;29177;-76
2022/04/11 10:50:33;;;;;;;;;4.00;3.00;;;;;-147.47;100.00;64613.53;5065001;28;28672;-74
2022/04/11 10:53:10;;;;;;;;;4.00;2.20;;;;;-147.47;100.00;64613.53;5065505;28;28603;-73
2022/04/11 10:55:54;;;;;;;;;3.00;3.00;;;;;-147.47;100.00;64613.53;5056329;28;28539;-73
2022/04/11 10:58:39;;;;;;;;;3.20;1.80;;;;;-147.47;100.00;64613.53;5042534;28;28555;-74
2022/04/11 11:01:05;;;;;;;;;2.00;2.00;;;;;-147.47;100.00;64613.53;5047779;28;28579;-73
2022/04/11 11:03:31;;;;;;;;;4.00;2.00;;;;;-147.47;100.00;64613.53;5057287;28;28606;-75
2022/04/11 11:06:15;;;;;;;;;2.50;2.50;;;;;-147.47;100.00;64613.53;5039702;28;28813;-74